Time;durP1;ratioP1;P1;durP2;ratioP2;P2;SDS_P1;SDS_P2;PMS_P1;PMS_P2;Temp;Humidity;BMP_temperature;BMP_pressure;BME280_temperature;BME280_humidity;BME280_pressure;Samples;Min_cycle;Max_cycle;Signal;HPM_P1;HPM_P2
2021/12/07 00:01:57;;;;;;;29.27;13.73;;;2.00;99.90;;;;;;5027278;28;20037;-66
2021/12/07 00:04:24;;;;;;;28.02;14.20;;;1.80;99.90;;;;;;5029102;28;20154;-66
2021/12/07 00:06:50;;;;;;;34.38;15.00;;;1.90;99.90;;;;;;5010938;28;20389;-70
2021/12/07 00:09:17;;;;;;;35.22;14.63;;;1.80;99.90;;;;;;5024978;28;20048;-67
2021/12/07 00:11:47;;;;;;;32.28;14.52;;;1.80;99.90;;;;;;5018327;28;20040;-66
2021/12/07 00:14:13;;;;;;;30.73;14.57;;;1.80;99.90;;;;;;4996474;28;20120;-67
2021/12/07 00:16:44;;;;;;;33.30;14.48;;;1.80;99.90;;;;;;4986099;28;20309;-67
2021/12/07 00:19:13;;;;;;;33.95;14.32;;;1.70;99.90;;;;;;5015909;28;20122;-66
2021/12/07 00:21:42;;;;;;;31.42;13.80;;;1.70;99.90;;;;;;5031299;28;20041;-65
2021/12/07 00:24:09;;;;;;;33.50;13.93;;;1.60;99.90;;;;;;5013987;28;20055;-66
2021/12/07 00:26:35;;;;;;;26.67;13.45;;;1.50;99.90;;;;;;5045311;28;20487;-65
2021/12/07 00:29:02;;;;;;;31.13;13.95;;;1.30;99.90;;;;;;5011051;28;20048;-66
2021/12/07 00:31:37;;;;;;;32.50;13.93;;;1.30;99.90;;;;;;5012752;28;20040;-66
2021/12/07 00:36:46;;;;;;;29.20;13.02;;;1.30;99.90;;;;;;5025152;28;20497;-65
2021/12/07 00:39:14;;;;;;;29.98;13.95;;;1.30;99.90;;;;;;5029316;28;20560;-65
2021/12/07 00:41:40;;;;;;;29.10;13.50;;;1.30;99.90;;;;;;5030965;28;20041;-65
2021/12/07 00:44:06;;;;;;;31.77;13.40;;;1.30;99.90;;;;;;5033021;28;20133;-65
2021/12/07 00:46:32;;;;;;;32.20;13.90;;;1.30;99.90;;;;;;5014158;28;20144;-64
2021/12/07 00:48:58;;;;;;;40.25;15.10;;;1.30;99.90;;;;;;5032654;28;20045;-64
2021/12/07 00:51:24;;;;;;;30.30;13.32;;;1.30;99.90;;;;;;5033805;28;20049;-64
2021/12/07 00:53:50;;;;;;;32.88;13.80;;;1.30;99.90;;;;;;5033861;28;20043;-64
2021/12/07 00:56:16;;;;;;;33.70;14.10;;;1.20;99.90;;;;;;5033600;28;20072;-65
2021/12/07 00:58:41;;;;;;;31.23;12.75;;;1.20;99.90;;;;;;5030930;28;20630;-64
2021/12/07 01:01:11;;;;;;;34.67;13.98;;;1.20;99.90;;;;;;5049589;28;20045;-63
2021/12/07 01:03:38;;;;;;;31.98;13.23;;;1.20;99.90;;;;;;5032032;28;20076;-64
2021/12/07 01:06:18;;;;;;;31.88;14.18;;;1.10;99.90;;;;;;5015865;28;20143;-64
2021/12/07 01:09:15;;;;;;;32.22;14.40;;;1.10;99.90;;;;;;5043297;28;20037;-63
2021/12/07 01:25:34;;;;;;;30.67;12.73;;;0.80;99.90;;;;;;5032853;28;20114;-64
2021/12/07 01:28:06;;;;;;;;;;;0.80;99.90;;;;;;5031688;28;20453;-63
2021/12/07 01:30:50;;;;;;;26.02;12.90;;;0.70;99.90;;;;;;5029135;28;19963;-63
2021/12/07 01:36:14;;;;;;;30.15;12.95;;;0.60;99.90;;;;;;5049982;28;20076;-63
2021/12/07 01:38:40;;;;;;;31.98;12.35;;;0.60;99.90;;;;;;5031191;28;20103;-63
2021/12/07 01:41:21;;;;;;;36.40;13.32;;;0.60;99.90;;;;;;5031178;28;20040;-63
2021/12/07 01:44:05;;;;;;;28.60;11.98;;;0.60;99.90;;;;;;5050334;28;20045;-64
2021/12/07 01:46:59;;;;;;;31.35;13.48;;;0.60;99.90;;;;;;5030557;28;20445;-64
2021/12/07 01:58:06;;;;;;;30.35;12.93;;;0.60;99.90;;;;;;5029583;28;20270;-64
2021/12/07 02:00:36;;;;;;;33.00;13.52;;;0.60;99.90;;;;;;5025482;28;20053;-65
2021/12/07 02:03:03;;;;;;;25.77;11.63;;;0.60;99.90;;;;;;5033351;28;20055;-64
2021/12/07 02:05:28;;;;;;;27.73;12.07;;;0.60;99.90;;;;;;5033026;28;20041;-64
2021/12/07 02:07:54;;;;;;;35.75;12.77;;;0.60;99.90;;;;;;5032171;28;20036;-63
2021/12/07 02:10:24;;;;;;;30.75;12.30;;;0.60;99.90;;;;;;5016736;28;20069;-63
2021/12/07 02:12:52;;;;;;;35.42;13.65;;;0.60;99.90;;;;;;5028737;28;20468;-65
2021/12/07 02:15:22;;;;;;;36.75;13.45;;;0.60;99.90;;;;;;5031150;28;20471;-64
2021/12/07 02:17:50;;;;;;;33.95;13.38;;;0.70;99.90;;;;;;5030155;28;20139;-63
2021/12/07 02:20:17;;;;;;;32.55;13.63;;;0.60;99.90;;;;;;5030349;28;20128;-64
2021/12/07 02:22:43;;;;;;;33.47;13.63;;;0.60;99.90;;;;;;5032188;28;20132;-63
2021/12/07 02:25:12;;;;;;;32.25;13.63;;;0.60;99.90;;;;;;5025760;28;20112;-64
2021/12/07 02:27:38;;;;;;;35.00;13.88;;;0.60;99.90;;;;;;5027813;28;20128;-64
2021/12/07 02:30:07;;;;;;;37.58;14.25;;;0.70;99.90;;;;;;5029681;28;20064;-64
2021/12/07 02:32:32;;;;;;;29.75;13.73;;;0.60;99.90;;;;;;5014444;28;20123;-64
2021/12/07 02:35:00;;;;;;;40.05;15.77;;;0.60;99.90;;;;;;5030235;28;20080;-64
2021/12/07 02:37:28;;;;;;;34.90;14.13;;;0.60;99.90;;;;;;5014946;28;20076;-64
2021/12/07 02:39:54;;;;;;;34.25;13.88;;;0.60;99.90;;;;;;5014748;28;20053;-64
2021/12/07 02:42:20;;;;;;;37.22;13.88;;;0.60;99.90;;;;;;5030241;28;20045;-64
2021/12/07 02:44:46;;;;;;;33.70;14.27;;;0.60;99.90;;;;;;5028045;28;20051;-64
2021/12/07 02:47:12;;;;;;;31.02;12.82;;;0.60;99.90;;;;;;5030741;28;20148;-64
2021/12/07 02:49:38;;;;;;;32.78;13.82;;;0.70;99.90;;;;;;5031215;28;20115;-65
2021/12/07 02:52:04;;;;;;;27.13;12.43;;;0.70;99.90;;;;;;5028269;28;20505;-64
2021/12/07 02:54:36;;;;;;;31.75;13.38;;;0.70;99.90;;;;;;5022473;28;20037;-64
2021/12/07 02:57:02;;;;;;;29.75;13.32;;;0.70;99.90;;;;;;5034642;28;20132;-64
2021/12/07 02:59:28;;;;;;;32.05;13.60;;;0.70;99.90;;;;;;5008501;28;20050;-65
2021/12/07 03:02:04;;;;;;;29.42;13.57;;;0.70;99.90;;;;;;5009373;28;20041;-65
2021/12/07 03:04:36;;;;;;;31.48;13.38;;;0.80;99.90;;;;;;5030080;28;20104;-64
2021/12/07 03:28:16;;;;;;;38.53;16.20;;;0.90;99.90;;;;;;5026233;28;20624;-64
2021/12/07 03:30:42;;;;;;;38.78;16.63;;;0.80;99.90;;;;;;5009108;28;20397;-63
2021/12/07 03:33:08;;;;;;;41.80;16.05;;;0.80;99.90;;;;;;5011525;28;20041;-64
2021/12/07 03:35:33;;;;;;;37.13;16.88;;;0.80;99.90;;;;;;5012437;28;20087;-65
2021/12/07 03:38:00;;;;;;;37.55;16.10;;;0.80;99.90;;;;;;5009820;28;20099;-64
2021/12/07 03:40:26;;;;;;;40.83;17.50;;;0.80;99.90;;;;;;5010607;28;20112;-64
2021/12/07 03:42:51;;;;;;;39.67;16.02;;;0.80;99.90;;;;;;5025614;28;20037;-64
2021/12/07 03:45:17;;;;;;;40.00;16.35;;;0.80;99.90;;;;;;5009997;28;20105;-63
2021/12/07 03:47:43;;;;;;;49.03;18.13;;;0.80;99.90;;;;;;5007608;28;20037;-63
2021/12/07 03:50:10;;;;;;;43.92;17.88;;;0.80;99.90;;;;;;5029328;28;20068;-63
2021/12/07 03:52:36;;;;;;;44.92;17.30;;;0.80;99.90;;;;;;5011332;28;20094;-63
2021/12/07 03:55:04;;;;;;;43.47;17.23;;;0.80;99.90;;;;;;5024739;28;20580;-63
2021/12/07 03:57:29;;;;;;;44.65;16.95;;;0.80;99.90;;;;;;5007385;28;20060;-64
2021/12/07 03:59:55;;;;;;;47.05;17.33;;;0.90;99.90;;;;;;5026597;28;20060;-64
2021/12/07 04:02:21;;;;;;;52.45;18.83;;;0.90;99.90;;;;;;5048221;28;20033;-63
2021/12/07 04:04:46;;;;;;;43.13;17.75;;;0.90;99.90;;;;;;5015078;28;20127;-64
2021/12/07 04:07:12;;;;;;;44.53;18.00;;;0.90;99.90;;;;;;5031556;28;20045;-63
2021/12/07 04:09:37;;;;;;;49.97;19.10;;;0.90;99.90;;;;;;5030149;28;20067;-64
2021/12/07 04:12:03;;;;;;;43.80;16.80;;;0.90;99.90;;;;;;5026972;28;20041;-63
2021/12/07 04:14:29;;;;;;;50.50;19.05;;;0.90;99.90;;;;;;5013322;28;20029;-66
2021/12/07 04:16:54;;;;;;;42.75;17.17;;;0.90;99.90;;;;;;5014523;28;20124;-63
2021/12/07 04:19:20;;;;;;;48.00;18.85;;;0.80;99.90;;;;;;5035597;28;20041;-64
2021/12/07 04:21:46;;;;;;;44.40;16.65;;;0.80;99.90;;;;;;5033431;28;20048;-63
2021/12/07 04:24:11;;;;;;;53.03;18.45;;;0.80;99.90;;;;;;5026546;28;20151;-65
2021/12/07 04:26:38;;;;;;;52.58;18.25;;;0.80;99.90;;;;;;5051446;28;20045;-64
2021/12/07 04:29:04;;;;;;;52.25;17.25;;;0.80;99.90;;;;;;5012822;28;20041;-64
2021/12/07 04:31:30;;;;;;;50.35;18.17;;;0.80;99.90;;;;;;5032768;28;20051;-63
2021/12/07 04:33:56;;;;;;;41.88;16.85;;;0.80;99.90;;;;;;5035465;28;20037;-63
2021/12/07 04:36:21;;;;;;;44.30;16.50;;;0.70;99.90;;;;;;5032859;28;20041;-64
2021/12/07 04:38:47;;;;;;;45.35;17.00;;;0.80;99.90;;;;;;5033583;28;20111;-63
2021/12/07 04:41:13;;;;;;;48.88;18.17;;;0.80;99.90;;;;;;5017708;28;20029;-64
2021/12/07 04:43:40;;;;;;;49.97;18.23;;;0.90;99.90;;;;;;5029040;28;20534;-63
2021/12/07 04:46:29;;;;;;;49.22;18.90;;;0.90;99.90;;;;;;5016866;28;20104;-63
2021/12/07 05:00:01;;;;;;;42.72;16.52;;;0.80;99.90;;;;;;4990393;28;20260;-64
2021/12/07 05:02:26;;;;;;;46.33;17.50;;;0.70;99.90;;;;;;5013460;28;20465;-63
2021/12/07 05:04:52;;;;;;;51.65;17.50;;;0.70;99.90;;;;;;5015762;28;20144;-64
2021/12/07 05:07:27;;;;;;;48.03;17.30;;;0.70;99.90;;;;;;5015020;28;20040;-63
2021/12/07 05:10:06;;;;;;;49.88;17.55;;;0.70;99.90;;;;;;5032574;28;20037;-64
2021/12/07 05:12:52;;;;;;;43.80;16.42;;;0.70;99.90;;;;;;5011430;28;20049;-64
2021/12/07 05:15:29;;;;;;;48.47;16.00;;;0.70;99.90;;;;;;5018532;28;20037;-64
2021/12/07 05:39:31;;;;;;;38.65;14.07;;;0.90;99.90;;;;;;5018748;28;20100;-64
2021/12/07 05:41:57;;;;;;;42.08;15.02;;;0.90;99.90;;;;;;5030636;28;20053;-65
2021/12/07 05:44:22;;;;;;;40.20;13.52;;;0.90;99.90;;;;;;5030551;28;20033;-65
2021/12/07 05:46:48;;;;;;;42.05;15.90;;;0.90;99.90;;;;;;5013668;28;20044;-64
2021/12/07 05:49:13;;;;;;;37.53;13.38;;;0.80;99.90;;;;;;5031549;28;20505;-64
2021/12/07 05:51:39;;;;;;;40.60;14.27;;;0.80;99.90;;;;;;5013185;28;20041;-64
2021/12/07 05:54:05;;;;;;;33.90;12.18;;;0.70;99.90;;;;;;4995873;28;20397;-64
2021/12/07 05:56:30;;;;;;;37.95;14.32;;;0.70;99.90;;;;;;5012333;28;20045;-65
2021/12/07 05:58:56;;;;;;;34.45;12.73;;;0.80;99.90;;;;;;5023764;28;20426;-63
2021/12/07 06:01:21;;;;;;;35.90;14.00;;;0.80;99.90;;;;;;5024693;28;20061;-64
2021/12/07 06:03:47;;;;;;;39.40;13.32;;;0.90;99.90;;;;;;5026778;28;20457;-64
2021/12/07 06:06:13;;;;;;;31.80;12.00;;;0.90;99.90;;;;;;5019635;28;20061;-65
2021/12/07 06:08:38;;;;;;;36.80;13.80;;;0.90;99.90;;;;;;5003574;28;20041;-64
2021/12/07 06:11:04;;;;;;;33.70;13.05;;;0.90;99.90;;;;;;5017790;28;20057;-63
2021/12/07 06:13:29;;;;;;;40.97;14.35;;;0.90;99.90;;;;;;5013534;28;20351;-65
2021/12/07 06:15:55;;;;;;;35.50;13.55;;;1.00;99.90;;;;;;5014493;28;20053;-63
2021/12/07 06:18:21;;;;;;;40.53;15.07;;;1.00;99.90;;;;;;5022928;28;20120;-63
2021/12/07 06:20:47;;;;;;;36.70;14.27;;;1.00;99.90;;;;;;5023408;28;20511;-64
2021/12/07 06:23:16;;;;;;;39.38;13.70;;;1.00;99.90;;;;;;5019200;28;20040;-64
2021/12/07 06:25:42;;;;;;;33.65;13.00;;;1.10;99.90;;;;;;5028626;28;20555;-64
2021/12/07 06:28:08;;;;;;;38.10;14.15;;;1.10;99.90;;;;;;5018460;28;20049;-64
2021/12/07 06:30:33;;;;;;;36.22;13.25;;;1.20;99.90;;;;;;5018730;28;20386;-64
2021/12/07 06:32:59;;;;;;;37.75;14.13;;;1.10;99.90;;;;;;5008873;28;20444;-65
2021/12/07 06:35:25;;;;;;;33.95;13.85;;;1.20;99.90;;;;;;5021110;28;20048;-64
2021/12/07 06:37:50;;;;;;;35.00;12.45;;;1.20;99.90;;;;;;5014205;28;20041;-64
2021/12/07 06:40:16;;;;;;;38.17;13.52;;;1.30;99.90;;;;;;5053984;28;20041;-66
2021/12/07 06:42:42;;;;;;;35.85;12.93;;;1.20;99.90;;;;;;4997220;28;20033;-65
2021/12/07 06:45:09;;;;;;;32.05;13.13;;;1.30;99.90;;;;;;5010816;28;20538;-64
2021/12/07 06:47:35;;;;;;;34.17;13.75;;;1.30;99.90;;;;;;5046212;28;20087;-65
2021/12/07 06:50:03;;;;;;;37.22;13.25;;;1.20;99.90;;;;;;5019959;28;20144;-64
2021/12/07 06:52:29;;;;;;;34.28;13.38;;;1.20;99.90;;;;;;4998866;28;20104;-64
2021/12/07 06:54:54;;;;;;;35.92;13.43;;;1.20;99.90;;;;;;5014022;28;22258;-63
2021/12/07 06:57:20;;;;;;;35.47;12.38;;;1.20;99.90;;;;;;5013725;28;20045;-64
2021/12/07 06:59:46;;;;;;;31.05;11.38;;;1.10;99.90;;;;;;5030006;28;20218;-64
2021/12/07 07:02:11;;;;;;;33.47;12.07;;;1.10;99.90;;;;;;5024689;28;20388;-64
2021/12/07 07:04:37;;;;;;;39.58;12.85;;;1.20;99.90;;;;;;5031029;28;20139;-64
2021/12/07 07:07:03;;;;;;;38.80;13.30;;;1.10;99.90;;;;;;5014515;28;20037;-63
2021/12/07 07:09:28;;;;;;;35.17;12.90;;;1.20;99.90;;;;;;5032835;28;20049;-64
2021/12/07 07:11:54;;;;;;;34.30;12.85;;;1.10;99.90;;;;;;5024351;28;20040;-64
2021/12/07 07:14:19;;;;;;;37.10;13.63;;;1.20;99.90;;;;;;5030657;28;20087;-64
2021/12/07 07:16:45;;;;;;;31.77;12.85;;;1.20;99.90;;;;;;5023725;28;20071;-64
2021/12/07 07:19:10;;;;;;;35.85;12.85;;;1.10;99.90;;;;;;5029257;28;20064;-64
2021/12/07 07:21:36;;;;;;;37.83;13.82;;;1.10;99.90;;;;;;5012911;28;20041;-64
2021/12/07 07:24:02;;;;;;;37.15;12.68;;;1.10;99.90;;;;;;5021310;28;20065;-64
2021/12/07 07:26:28;;;;;;;36.70;13.27;;;1.00;99.90;;;;;;5029268;28;20033;-63
2021/12/07 07:28:54;;;;;;;38.53;13.73;;;1.00;99.90;;;;;;5035745;28;20044;-63
2021/12/07 07:31:19;;;;;;;40.60;13.40;;;1.00;99.90;;;;;;5022669;28;20373;-64
2021/12/07 07:33:45;;;;;;;44.65;14.30;;;1.00;99.90;;;;;;5030691;28;20083;-63
2021/12/07 07:36:10;;;;;;;33.38;13.38;;;1.10;99.90;;;;;;5049854;28;20124;-65
2021/12/07 07:38:36;;;;;;;31.63;12.95;;;1.10;99.90;;;;;;5047792;28;20110;-64
2021/12/07 07:41:02;;;;;;;40.70;13.10;;;1.10;99.90;;;;;;5013539;28;20043;-64
2021/12/07 07:43:29;;;;;;;42.25;15.10;;;1.20;99.90;;;;;;5027915;28;20041;-63
2021/12/07 07:45:54;;;;;;;41.20;13.57;;;1.20;99.90;;;;;;5016073;28;20064;-63
2021/12/07 07:48:21;;;;;;;39.38;13.20;;;1.20;99.90;;;;;;5042567;28;20158;-64
2021/12/07 07:50:47;;;;;;;39.60;13.80;;;1.30;99.90;;;;;;5013895;28;20041;-64
2021/12/07 07:53:13;;;;;;;45.25;14.27;;;1.30;99.90;;;;;;5014135;28;20056;-63
2021/12/07 07:55:42;;;;;;;56.55;24.95;;;1.30;99.90;;;;;;5017333;28;20060;-63
2021/12/07 07:58:08;;;;;;;39.55;14.07;;;1.40;99.90;;;;;;5022966;28;20057;-63
2021/12/07 08:00:34;;;;;;;39.00;13.32;;;1.30;99.90;;;;;;5009298;28;20585;-64
2021/12/07 08:03:00;;;;;;;40.05;13.95;;;1.30;99.90;;;;;;5014053;28;20128;-64
2021/12/07 08:05:26;;;;;;;38.83;13.00;;;1.40;99.90;;;;;;4994780;28;20049;-64
2021/12/07 08:07:51;;;;;;;37.92;13.52;;;1.30;99.90;;;;;;4993208;28;20473;-63
2021/12/07 08:10:21;;;;;;;36.53;13.05;;;1.20;99.90;;;;;;4995608;28;20045;-63
2021/12/07 08:12:47;;;;;;;39.42;13.30;;;1.20;99.90;;;;;;5009257;28;20073;-63
2021/12/07 08:15:14;;;;;;;35.58;12.63;;;1.20;99.90;;;;;;4993813;28;20072;-63
2021/12/07 08:17:39;;;;;;;44.78;13.52;;;1.10;99.90;;;;;;4984628;28;20065;-64
2021/12/07 08:20:06;;;;;;;33.90;12.15;;;1.20;99.90;;;;;;5010921;28;20384;-63
2021/12/07 08:22:32;;;;;;;41.45;13.32;;;1.20;99.90;;;;;;5011239;28;20052;-63
2021/12/07 08:24:57;;;;;;;34.03;12.98;;;1.20;99.90;;;;;;5002497;28;20042;-63
2021/12/07 08:27:24;;;;;;;34.65;12.43;;;1.10;99.90;;;;;;5020761;28;20480;-63
2021/12/07 08:29:49;;;;;;;40.78;12.82;;;1.10;99.90;;;;;;5009442;28;20065;-63
2021/12/07 08:32:15;;;;;;;45.05;13.85;;;1.20;99.90;;;;;;5010280;28;20123;-64
2021/12/07 08:34:40;;;;;;;38.70;13.23;;;1.20;99.90;;;;;;5010854;28;20119;-64
2021/12/07 08:37:06;;;;;;;33.75;11.07;;;1.20;99.90;;;;;;5007903;28;20038;-65
2021/12/07 08:39:34;;;;;;;30.38;12.13;;;1.20;99.90;;;;;;5008722;28;20188;-64
2021/12/07 08:42:01;;;;;;;34.72;11.40;;;1.30;99.90;;;;;;5009651;28;20052;-64
2021/12/07 08:44:27;;;;;;;33.55;12.82;;;1.30;99.90;;;;;;5010640;28;20121;-64
2021/12/07 08:46:53;;;;;;;36.13;12.23;;;1.30;99.90;;;;;;4994512;28;20046;-64
2021/12/07 08:49:20;;;;;;;33.70;12.20;;;1.30;99.90;;;;;;5011899;28;20049;-64
2021/12/07 08:51:45;;;;;;;30.38;11.95;;;1.40;99.90;;;;;;4995113;28;20046;-64
2021/12/07 08:54:20;;;;;;;27.33;11.63;;;1.40;99.90;;;;;;4995873;28;20052;-64
2021/12/07 08:59:40;;;;;;;33.60;12.10;;;1.40;99.90;;;;;;5021011;28;20049;-64
2021/12/07 09:02:07;;;;;;;34.20;12.38;;;1.50;99.90;;;;;;5031683;28;20040;-63
2021/12/07 09:04:33;;;;;;;29.40;11.80;;;1.50;99.90;;;;;;5033453;28;20374;-63
2021/12/07 09:06:59;;;;;;;35.58;11.32;;;1.60;99.90;;;;;;5034162;28;20045;-64
2021/12/07 09:09:24;;;;;;;28.83;10.55;;;1.60;99.90;;;;;;5014625;28;20112;-63
2021/12/07 09:11:53;;;;;;;32.50;11.55;;;1.70;99.90;;;;;;4997061;28;20354;-64
2021/12/07 09:14:19;;;;;;;30.65;11.68;;;1.70;99.90;;;;;;5014267;28;20052;-64
2021/12/07 09:16:45;;;;;;;32.47;12.13;;;1.80;99.90;;;;;;5017800;28;20046;-64
2021/12/07 09:19:11;;;;;;;34.13;11.30;;;1.80;99.90;;;;;;5016337;28;20064;-64
2021/12/07 09:21:37;;;;;;;28.88;11.40;;;1.80;99.90;;;;;;5014891;28;20040;-65
2021/12/07 09:24:03;;;;;;;35.17;11.88;;;1.90;99.90;;;;;;5015461;28;20120;-64
2021/12/07 09:26:29;;;;;;;32.80;11.25;;;1.90;99.90;;;;;;5014008;28;20040;-65
2021/12/07 09:28:55;;;;;;;37.05;11.85;;;2.00;99.90;;;;;;5013916;28;20029;-64
2021/12/07 09:31:22;;;;;;;26.15;11.38;;;2.00;99.90;;;;;;5013861;28;20073;-64
2021/12/07 09:33:49;;;;;;;26.70;10.73;;;2.00;99.90;;;;;;5015497;28;20124;-64
2021/12/07 09:36:15;;;;;;;30.50;11.38;;;2.10;99.90;;;;;;5015269;28;20077;-64
2021/12/07 09:38:41;;;;;;;30.00;11.15;;;2.10;99.90;;;;;;5014599;28;20107;-65
2021/12/07 09:41:10;;;;;;;31.48;11.30;;;2.20;99.90;;;;;;5014996;28;20519;-64
2021/12/07 09:43:36;;;;;;;35.28;11.18;;;2.20;99.90;;;;;;5012660;28;20077;-64
2021/12/07 09:46:03;;;;;;;34.67;12.13;;;2.20;99.90;;;;;;5000658;28;20049;-64
2021/12/07 09:48:29;;;;;;;30.38;10.15;;;2.30;99.90;;;;;;4995422;28;20457;-65
2021/12/07 09:50:55;;;;;;;30.27;11.88;;;2.30;99.90;;;;;;4995852;28;20041;-64
2021/12/07 09:53:22;;;;;;;30.40;10.85;;;2.30;99.90;;;;;;4995402;28;20531;-64
2021/12/07 09:55:50;;;;;;;22.88;9.77;;;2.40;99.90;;;;;;5032135;28;20103;-65
2021/12/07 09:58:17;;;;;;;23.60;9.38;;;2.40;99.90;;;;;;5012235;28;20098;-64
2021/12/07 10:00:44;;;;;;;27.48;11.05;;;2.40;99.90;;;;;;5013852;28;20042;-64
2021/12/07 10:03:11;;;;;;;25.05;10.98;;;2.40;99.90;;;;;;5013541;28;20034;-64
2021/12/07 10:05:40;;;;;;;33.00;11.23;;;2.50;99.90;;;;;;5014360;28;20038;-64
2021/12/07 10:08:07;;;;;;;25.08;9.77;;;2.50;99.90;;;;;;5032142;28;20069;-64
2021/12/07 10:10:36;;;;;;;25.23;10.05;;;2.60;99.90;;;;;;5014324;28;20041;-64
2021/12/07 10:13:03;;;;;;;23.25;10.15;;;2.60;99.90;;;;;;5010522;28;20362;-64
2021/12/07 10:15:29;;;;;;;26.55;9.60;;;2.70;99.90;;;;;;5013277;28;20056;-65
2021/12/07 10:17:59;;;;;;;19.80;8.70;;;2.70;99.90;;;;;;5013870;28;20038;-64
2021/12/07 10:20:34;;;;;;;26.70;10.15;;;2.60;99.90;;;;;;5030849;28;20061;-64
2021/12/07 10:23:26;;;;;;;23.15;9.20;;;2.60;99.90;;;;;;5009302;28;20430;-64
2021/12/07 10:25:56;;;;;;;28.77;9.77;;;2.50;99.90;;;;;;5004568;28;20052;-64
2021/12/07 10:28:42;;;;;;;21.05;8.52;;;2.50;99.90;;;;;;5027818;28;20048;-64
2021/12/07 10:31:10;;;;;;;24.88;8.48;;;2.50;99.90;;;;;;5012770;28;20178;-64
2021/12/07 10:33:54;;;;;;;22.45;9.18;;;2.60;99.90;;;;;;5017983;28;20499;-65
2021/12/07 10:36:34;;;;;;;28.10;9.88;;;2.70;99.90;;;;;;5013351;28;20053;-64
2021/12/07 10:39:08;;;;;;;23.10;8.90;;;2.70;99.90;;;;;;4999088;28;20361;-64
2021/12/07 10:41:59;;;;;;;19.80;8.85;;;2.80;99.90;;;;;;5013010;28;20331;-64
2021/12/07 10:44:30;;;;;;;23.58;8.88;;;2.90;99.90;;;;;;5011397;28;20689;-64
2021/12/07 10:46:58;;;;;;;29.52;8.93;;;3.00;99.90;;;;;;5012935;28;20476;-64
2021/12/07 10:49:27;;;;;;;24.60;9.10;;;3.00;99.90;;;;;;5031738;28;20079;-64
2021/12/07 10:51:59;;;;;;;25.33;9.48;;;3.10;99.90;;;;;;5030651;28;20049;-64
2021/12/07 10:54:27;;;;;;;23.60;8.52;;;3.20;99.90;;;;;;5031046;28;20039;-64
2021/12/07 10:56:52;;;;;;;25.45;9.05;;;3.30;99.90;;;;;;5011337;28;20050;-64
2021/12/07 10:59:18;;;;;;;22.85;8.45;;;3.30;99.90;;;;;;5026663;28;20076;-64
2021/12/07 11:01:47;;;;;;;19.58;7.72;;;3.30;99.90;;;;;;5047970;28;20072;-64
2021/12/07 11:04:27;;;;;;;22.23;8.27;;;3.30;99.90;;;;;;5032160;28;20476;-64
2021/12/07 11:07:29;;;;;;;20.70;7.93;;;3.40;99.90;;;;;;5032009;28;20053;-64
2021/12/07 11:10:09;;;;;;;18.13;7.60;;;3.40;99.90;;;;;;5015964;28;20126;-64
2021/12/07 11:13:15;;;;;;;21.90;8.48;;;3.40;99.90;;;;;;5028044;28;20040;-64
2021/12/07 11:15:50;;;;;;;20.98;7.97;;;3.40;99.90;;;;;;5029106;28;20057;-65
2021/12/07 11:18:20;;;;;;;22.38;7.93;;;3.50;99.90;;;;;;5032293;28;20047;-64
2021/12/07 11:20:45;;;;;;;24.15;7.70;;;3.50;99.90;;;;;;5031760;28;20099;-64
2021/12/07 11:23:16;;;;;;;22.00;7.72;;;3.60;99.90;;;;;;5031822;28;20045;-64
2021/12/07 11:29:39;;;;;;;;;;;3.60;99.90;;;;;;5032437;28;20127;-64
2021/12/07 11:31:49;;;;;;;20.27;6.93;;;3.80;99.90;;;;;;5049672;28;20071;-65
2021/12/07 11:34:26;;;;;;;16.13;7.32;;;3.80;99.90;;;;;;5032133;28;20041;-65
2021/12/07 11:37:05;;;;;;;17.77;8.15;;;3.90;99.90;;;;;;5030867;28;20118;-65
2021/12/07 11:39:36;;;;;;;21.40;7.72;;;4.00;99.90;;;;;;5031606;28;20159;-66
2021/12/07 11:42:22;;;;;;;20.00;7.10;;;4.00;99.90;;;;;;5037462;28;20052;-66
2021/12/07 11:45:02;;;;;;;26.75;7.13;;;4.00;99.90;;;;;;5014920;28;20135;-66
2021/12/07 11:47:35;;;;;;;15.77;7.20;;;4.00;99.90;;;;;;5024050;28;20099;-66
2021/12/07 11:50:28;;;;;;;19.67;7.63;;;4.10;99.90;;;;;;5031154;28;20090;-66
2021/12/07 11:52:57;;;;;;;16.05;6.78;;;4.10;99.90;;;;;;5029660;28;20044;-66
2021/12/07 11:55:24;;;;;;;22.75;6.88;;;4.20;99.90;;;;;;5030463;28;20120;-66
2021/12/07 11:57:50;;;;;;;19.02;7.57;;;4.20;99.90;;;;;;5028240;28;20063;-67
2021/12/07 12:00:21;;;;;;;17.58;6.97;;;4.30;99.90;;;;;;5012248;28;20111;-66
2021/12/07 12:02:47;;;;;;;18.10;6.80;;;4.30;99.90;;;;;;5028028;28;20131;-67
2021/12/07 12:05:13;;;;;;;21.40;7.40;;;4.30;99.90;;;;;;5030598;28;20127;-67
2021/12/07 12:07:41;;;;;;;15.15;6.28;;;4.40;99.90;;;;;;5028605;28;20074;-66
2021/12/07 12:10:09;;;;;;;20.58;6.40;;;4.40;99.90;;;;;;5015849;28;20052;-66
2021/12/07 12:12:40;;;;;;;17.60;6.35;;;4.40;99.90;;;;;;5045418;28;20095;-66
2021/12/07 12:15:47;;;;;;;14.15;6.30;;;4.40;99.90;;;;;;5027663;28;20037;-67
2021/12/07 12:18:26;;;;;;;16.40;6.85;;;4.50;99.90;;;;;;5028550;28;20041;-66
2021/12/07 12:21:13;;;;;;;16.73;6.85;;;4.50;99.90;;;;;;5031711;28;20112;-67
2021/12/07 12:23:58;;;;;;;14.77;7.13;;;4.60;99.90;;;;;;5013961;28;20372;-67
2021/12/07 12:26:27;;;;;;;16.95;6.80;;;4.60;99.90;;;;;;5029466;28;20128;-67
2021/12/07 12:28:55;;;;;;;15.20;6.77;;;4.50;99.90;;;;;;5011025;28;20041;-68
2021/12/07 12:31:42;;;;;;;19.77;6.68;;;4.60;99.90;;;;;;4998886;28;20176;-66
2021/12/07 12:34:25;;;;;;;17.33;7.63;;;4.60;99.90;;;;;;5023485;28;20431;-67
2021/12/07 12:37:07;;;;;;;15.68;7.30;;;4.60;99.90;;;;;;5033129;28;20387;-67
2021/12/07 12:40:00;;;;;;;16.20;7.20;;;4.60;99.90;;;;;;5013633;28;20119;-67
2021/12/07 12:42:37;;;;;;;17.30;7.03;;;4.60;99.90;;;;;;5021058;28;20061;-67
2021/12/07 12:45:12;;;;;;;20.42;6.90;;;4.60;99.90;;;;;;5039440;28;20211;-68
2021/12/07 12:47:40;;;;;;;17.50;6.50;;;4.60;99.90;;;;;;5016560;28;20036;-67
2021/12/07 12:50:14;;;;;;;20.38;7.70;;;4.60;99.90;;;;;;5032351;28;20056;-67
2021/12/07 12:52:46;;;;;;;16.80;7.22;;;4.60;99.90;;;;;;5015519;28;20099;-68
2021/12/07 12:55:49;;;;;;;17.27;7.32;;;4.60;99.90;;;;;;5025682;28;20080;-67
2021/12/07 12:58:38;;;;;;;16.92;6.38;;;4.60;99.90;;;;;;5028955;28;20489;-67
2021/12/07 13:01:13;;;;;;;18.50;7.03;;;4.60;99.90;;;;;;5012984;28;22417;-68
2021/12/07 13:04:03;;;;;;;15.13;6.35;;;4.60;99.90;;;;;;5015729;28;20116;-67
2021/12/07 13:06:31;;;;;;;16.25;6.40;;;4.60;99.90;;;;;;5011021;28;20041;-67
2021/12/07 13:09:02;;;;;;;13.93;5.90;;;4.70;99.90;;;;;;5021319;28;20048;-67
2021/12/07 13:11:51;;;;;;;18.02;6.60;;;4.60;99.90;;;;;;5015552;28;20147;-68
2021/12/07 13:14:19;;;;;;;15.88;7.05;;;4.70;99.90;;;;;;5030851;28;20511;-67
2021/12/07 13:17:08;;;;;;;16.10;6.60;;;4.70;99.90;;;;;;5020518;28;20048;-67
2021/12/07 13:20:19;;;;;;;16.27;6.82;;;4.70;99.90;;;;;;5024953;28;20983;-67
2021/12/07 13:22:44;;;;;;;15.30;6.18;;;4.70;99.90;;;;;;5011641;28;20052;-68
2021/12/07 13:25:27;;;;;;;19.38;6.38;;;4.60;99.90;;;;;;5015267;28;20037;-69
2021/12/07 13:28:02;;;;;;;19.90;7.00;;;4.60;99.90;;;;;;5030911;28;20052;-68
2021/12/07 13:30:58;;;;;;;16.35;6.80;;;4.60;99.90;;;;;;5031368;28;20329;-69
2021/12/07 13:33:39;;;;;;;14.15;6.40;;;4.60;99.90;;;;;;5027374;28;20068;-68
2021/12/07 13:36:27;;;;;;;14.52;7.57;;;4.60;99.90;;;;;;5033563;28;20049;-68
2021/12/07 13:38:53;;;;;;;22.40;7.85;;;4.60;99.90;;;;;;5031636;28;20091;-69
2021/12/07 13:41:21;;;;;;;16.55;6.78;;;4.60;99.90;;;;;;5032298;28;20041;-69
2021/12/07 13:43:48;;;;;;;19.40;6.60;;;4.50;99.90;;;;;;5028958;28;20475;-67
2021/12/07 13:46:24;;;;;;;15.65;6.45;;;4.50;99.90;;;;;;5031718;28;20134;-68
2021/12/07 13:48:53;;;;;;;18.00;6.78;;;4.50;99.90;;;;;;5031198;28;20037;-67
2021/12/07 13:51:20;;;;;;;15.65;6.95;;;4.50;99.90;;;;;;5032004;28;20107;-68
2021/12/07 13:53:47;;;;;;;12.45;6.82;;;4.40;99.90;;;;;;5028832;28;20110;-68
2021/12/07 13:56:13;;;;;;;21.38;6.60;;;4.40;99.90;;;;;;5032322;28;20043;-70
2021/12/07 13:58:55;;;;;;;15.20;6.30;;;4.30;99.90;;;;;;5022511;28;20049;-69
2021/12/07 14:01:23;;;;;;;15.20;6.65;;;4.30;99.90;;;;;;5015659;28;20037;-70
2021/12/07 14:03:49;;;;;;;14.90;6.43;;;4.20;99.90;;;;;;5016843;28;20094;-70
2021/12/07 14:06:15;;;;;;;20.90;7.93;;;4.20;99.90;;;;;;5032336;28;20131;-70
2021/12/07 14:08:41;;;;;;;17.65;7.32;;;4.10;99.90;;;;;;5032807;28;20389;-69
2021/12/07 14:11:06;;;;;;;18.23;7.60;;;4.10;99.90;;;;;;5031261;28;20757;-69
2021/12/07 14:13:32;;;;;;;14.55;6.60;;;4.10;99.90;;;;;;5027452;28;20048;-70
2021/12/07 14:15:58;;;;;;;15.40;7.80;;;3.90;99.90;;;;;;5013992;28;20160;-70
2021/12/07 14:18:26;;;;;;;19.33;7.72;;;3.90;99.90;;;;;;5031962;28;20152;-69
2021/12/07 14:20:55;;;;;;;18.73;8.32;;;3.90;99.90;;;;;;5015916;28;20487;-70
2021/12/07 14:23:54;;;;;;;17.73;8.65;;;3.80;99.90;;;;;;5030063;28;20036;-70